| time (UTC) | temp C | wind direction | speed KPH | gust KPH | rain 1hr cm | rain 24hr cm | rain mn cm | humidity % | barometer mb |
| 20260510203333 | 21 | 15 | 3.2 | 4.8 | 0.00 | 0.00 | 0.05 | 50 | 1015.9 |
| 20260510202745 | 22 | 74 | 0.0 | 0.0 | 0.00 | 0.00 | 0.05 | 49 | 1016.2 |
| 20260510202136 | 21 | 68 | 0.0 | 0.0 | 0.00 | 0.00 | 0.05 | 52 | 1016.2 |
| 20260510200912 | 22 | 26 | 3.2 | 3.2 | 0.00 | 0.00 | 0.05 | 59 | 1016.2 |
| 20260510200339 | 21 | 56 | 1.6 | 1.6 | 0.00 | 0.00 | 0.05 | 52 | 1016.2 |
| 20260510195720 | 21 | 86 | 0.0 | 1.6 | 0.00 | 0.00 | 0.05 | 52 | 1016.5 |
| 20260510195153 | 20 | 67 | 1.6 | 3.2 | 0.00 | 0.00 | 0.05 | 53 | 1016.5 |
| 20260510194535 | 21 | 12 | 8.0 | 11.3 | 0.00 | 0.00 | 0.05 | 52 | 1016.9 |
| 20260510193952 | 21 | 122 | 1.6 | 1.6 | 0.00 | 0.00 | 0.05 | 55 | 1016.9 |
| 20260510193321 | 21 | 90 | 0.0 | 0.0 | 0.00 | 0.00 | 0.05 | 55 | 1016.9 |
| 20260510192731 | 20 | 117 | 0.0 | 0.0 | 0.00 | 0.00 | 0.05 | 67 | 1017.2 |
| 20260510192132 | 20 | 60 | 6.4 | 6.4 | 0.00 | 0.00 | 0.05 | 58 | 1017.2 |
| 20260510191534 | 20 | 97 | 1.6 | 1.6 | 0.00 | 0.00 | 0.05 | 58 | 1016.9 |
| 20260510190926 | 18 | 78 | 0.0 | 0.0 | 0.00 | 0.00 | 0.05 | 61 | 1017.2 |
| 20260510190319 | 18 | 158 | 0.0 | 0.0 | 0.00 | 0.00 | 0.05 | 62 | 1016.9 |
| 20260510185121 | 19 | 116 | 3.2 | 3.2 | 0.00 | 0.00 | 0.05 | 64 | 1017.2 |
| 20260510184544 | 19 | 60 | 1.6 | 1.6 | 0.00 | 0.00 | 0.05 | 63 | 1016.9 |
| 20260510183943 | 18 | 85 | 0.0 | 1.6 | 0.00 | 0.00 | 0.05 | 61 | 1017.2 |
| 20260510183349 | 18 | 244 | 3.2 | 3.2 | 0.00 | 0.00 | 0.05 | 63 | 1017.2 |
| 20260510182738 | 18 | 231 | 3.2 | 4.8 | 0.00 | 0.00 | 0.05 | 60 | 1017.2 |
| 20260510182115 | 18 | 46 | 3.2 | 3.2 | 0.00 | 0.00 | 0.05 | 60 | 1016.9 |
| 20260510181544 | 19 | 68 | 0.0 | 1.6 | 0.00 | 0.00 | 0.05 | 59 | 1016.9 |
| 20260510180934 | 18 | 41 | 4.8 | 6.4 | 0.00 | 0.00 | 0.05 | 59 | 1016.9 |
| 20260510180317 | 18 | 36 | 6.4 | 6.4 | 0.00 | 0.00 | 0.05 | 60 | 1016.9 |
| 20260510175741 | 18 | 21 | 3.2 | 9.7 | 0.00 | 0.00 | 0.05 | 61 | 1016.9 |
| 20260510175152 | 20 | 121 | 3.2 | 3.2 | 0.00 | 0.00 | 0.05 | 58 | 1016.5 |
| 20260510173950 | 18 | 18 | 3.2 | 11.3 | 0.00 | 0.00 | 0.05 | 61 | 1016.9 |
| 20260510173326 | 18 | 32 | 3.2 | 4.8 | 0.00 | 0.00 | 0.05 | 65 | 1016.5 |
| 20260510172724 | 18 | 355 | 6.4 | 6.4 | 0.00 | 0.00 | 0.05 | 68 | 1016.5 |
| 20260510172111 | 18 | 126 | 1.6 | 1.6 | 0.00 | 0.00 | 0.05 | 71 | 1016.5 |
| 20260510170336 | 18 | 302 | 1.6 | 3.2 | 0.00 | 0.00 | 0.05 | 69 | 1016.5 |
| 20260510165751 | 17 | 45 | 6.4 | 6.4 | 0.00 | 0.00 | 0.05 | 71 | 1016.9 |
| 20260510164545 | 18 | 87 | 0.0 | 0.0 | 0.00 | 0.00 | 0.05 | 72 | 1016.5 |
| 20260510163944 | 18 | 61 | 3.2 | 3.2 | 0.00 | 0.00 | 0.05 | 74 | 1016.9 |
| 20260510162724 | 18 | 64 | 1.6 | 3.2 | 0.00 | 0.00 | 0.05 | 78 | 1016.5 |
| 20260510161529 | 17 | 12 | 1.6 | 3.2 | 0.00 | 0.00 | 0.05 | 79 | 1016.9 |
| 20260510160950 | 16 | 74 | 1.6 | 1.6 | 0.00 | 0.00 | 0.05 | 82 | 1016.5 |
| 20260510155736 | 17 | 77 | 0.0 | 0.0 | 0.00 | 0.00 | 0.05 | 81 | 1016.2 |
| 20260510155150 | 17 | 74 | 0.0 | 0.0 | 0.00 | 0.00 | 0.05 | 82 | 1016.2 |
| 20260510154523 | 17 | 50 | 0.0 | 0.0 | 0.00 | 0.00 | 0.05 | 81 | 1016.2 |
| 20260510153949 | 16 | 65 | 0.0 | 0.0 | 0.00 | 0.00 | 0.05 | 82 | 1016.2 |
| 20260510153322 | 17 | 68 | 0.0 | 1.6 | 0.00 | 0.00 | 0.05 | 81 | 1016.2 |
| 20260510152733 | 17 | 61 | 3.2 | 3.2 | 0.00 | 0.00 | 0.05 | 82 | 1016.2 |
| 20260510152149 | 17 | 45 | 3.2 | 4.8 | 0.00 | 0.00 | 0.05 | 79 | 1016.2 |
| 20260510151535 | 16 | 53 | 0.0 | 1.6 | 0.00 | 0.00 | 0.05 | 85 | 1015.9 |
| 20260510150914 | 15 | 356 | 3.2 | 3.2 | 0.00 | 0.00 | 0.05 | 90 | 1016.2 |
| 20260510150339 | 15 | 65 | 0.0 | 0.0 | 0.00 | 0.00 | 0.05 | 91 | 1015.9 |
| 20260510145717 | 15 | 76 | 0.0 | 0.0 | 0.00 | 0.00 | 0.05 | 92 | 1015.9 |
| 20260510145138 | 15 | 75 | 0.0 | 0.0 | 0.00 | 0.00 | 0.05 | 93 | 1015.9 |
| 20260510144510 | 15 | 75 | 0.0 | 0.0 | 0.00 | 0.00 | 0.05 | 93 | 1015.5 |
| 20260510143926 | 15 | 73 | 0.0 | 0.0 | 0.00 | 0.00 | 0.05 | 94 | 1015.5 |
| 20260510143335 | 15 | 78 | 0.0 | 0.0 | 0.00 | 0.00 | 0.05 | 94 | 1015.5 |
| 20260510142713 | 15 | 75 | 0.0 | 0.0 | 0.00 | 0.00 | 0.05 | 92 | 1015.2 |
| 20260510142128 | 15 | 97 | 0.0 | 0.0 | 0.00 | 0.00 | 0.05 | 87 | 1015.2 |
| 20260510140929 | 16 | 80 | 0.0 | 0.0 | 0.00 | 0.00 | 0.00 | 80 | 1015.5 |
| 20260510135715 | 17 | 77 | 0.0 | 0.0 | 0.00 | 0.00 | 0.00 | 78 | 1015.5 |
| 20260510135116 | 17 | 77 | 0.0 | 0.0 | 0.00 | 0.00 | 0.00 | 78 | 1015.9 |
| 20260510134511 | 18 | 304 | 3.2 | 6.4 | 0.00 | 0.00 | 0.00 | 74 | 1015.5 |
| 20260510133348 | 17 | 83 | 0.0 | 1.6 | 0.00 | 0.00 | 0.00 | 74 | 1015.2 |
| 20260510132749 | 17 | 134 | 3.2 | 4.8 | 0.00 | 0.00 | 0.00 | 77 | 1015.2 |
| 20260510131517 | 16 | 41 | 1.6 | 1.6 | 0.00 | 0.00 | 0.00 | 80 | 1015.5 |
| 20260510130920 | 16 | 102 | 0.0 | 1.6 | 0.00 | 0.00 | 0.00 | 81 | 1015.2 |
| 20260510130331 | 15 | 82 | 0.0 | 0.0 | 0.00 | 0.00 | 0.00 | 84 | 1015.2 |
| 20260510125751 | 15 | 323 | 1.6 | 1.6 | 0.00 | 0.00 | 0.00 | 84 | 1015.2 |
| 20260510125144 | 15 | 88 | 0.0 | 0.0 | 0.00 | 0.00 | 0.00 | 84 | 1015.2 |
| 20260510123308 | 14 | 107 | 0.0 | 0.0 | 0.00 | 0.00 | 0.00 | 87 | 1014.9 |
| 20260510122729 | 14 | 104 | 0.0 | 0.0 | 0.00 | 0.00 | 0.00 | 86 | 1014.9 |
| 20260510122133 | 14 | 103 | 0.0 | 0.0 | 0.00 | 0.00 | 0.00 | 88 | 1014.9 |
| 20260510121511 | 14 | 102 | 0.0 | 0.0 | 0.00 | 0.00 | 0.00 | 86 | 1014.5 |
| 20260510120949 | 14 | 104 | 0.0 | 1.6 | 0.00 | 0.00 | 0.00 | 87 | 1014.5 |
| 20260510115743 | 13 | 103 | 0.0 | 0.0 | 0.00 | 0.00 | 0.00 | 91 | 1014.5 |
| 20260510114518 | 13 | 107 | 0.0 | 0.0 | 0.00 | 0.00 | 0.00 | 89 | 1014.2 |
| 20260510113914 | 13 | 124 | 0.0 | 0.0 | 0.00 | 0.00 | 0.00 | 93 | 1014.2 |
| 20260510112710 | 12 | 84 | 0.0 | 0.0 | 0.00 | 0.00 | 0.00 | 97 | 1013.8 |
| 20260510112131 | 12 | 90 | 0.0 | 0.0 | 0.00 | 0.00 | 0.00 | 97 | 1013.8 |
| 20260510111532 | 11 | 88 | 0.0 | 0.0 | 0.00 | 0.00 | 0.00 | 98 | 1013.8 |
| 20260510110933 | 11 | 88 | 0.0 | 0.0 | 0.00 | 0.00 | 0.00 | 99 | 1013.8 |
| 20260510110312 | 11 | 89 | 0.0 | 0.0 | 0.00 | 0.00 | 0.00 | 99 | 1013.5 |
| 20260510105747 | 11 | 89 | 0.0 | 0.0 | 0.00 | 0.00 | 0.00 | 99 | 1013.2 |
| 20260510105143 | 11 | 89 | 0.0 | 0.0 | 0.00 | 0.00 | 0.00 | 99 | 1013.5 |
| 20260510103934 | 11 | 85 | 0.0 | 0.0 | 0.00 | 0.00 | 0.00 | 99 | 1013.2 |
| 20260510103324 | 11 | 86 | 0.0 | 0.0 | 0.00 | 0.00 | 0.00 | 99 | 1013.2 |
| 20260510102717 | 11 | 87 | 0.0 | 0.0 | 0.00 | 0.00 | 0.00 | 99 | 1013.2 |
| 20260510102142 | 11 | 83 | 0.0 | 0.0 | 0.00 | 0.00 | 0.00 | 99 | 1013.2 |
| 20260510101510 | 11 | 90 | 0.0 | 0.0 | 0.00 | 0.00 | 0.00 | 99 | 1012.8 |
| 20260510100351 | 10 | 88 | 0.0 | 0.0 | 0.00 | 0.00 | 0.00 | 99 | 1012.8 |
| 20260510095710 | 11 | 84 | 0.0 | 0.0 | 0.00 | 0.00 | 0.00 | 99 | 1012.8 |
| 20260510095139 | 10 | 106 | 0.0 | 0.0 | 0.00 | 0.00 | 0.00 | 99 | 1012.5 |
| 20260510094539 | 10 | 85 | 0.0 | 0.0 | 0.00 | 0.00 | 0.00 | 99 | 1012.5 |
| 20260510093908 | 10 | 90 | 0.0 | 0.0 | 0.00 | 0.00 | 0.00 | 99 | 1012.5 |
| 20260510093327 | 10 | 77 | 0.0 | 0.0 | 0.00 | 0.00 | 0.00 | 99 | 1012.5 |
| 20260510092725 | 10 | 85 | 0.0 | 0.0 | 0.00 | 0.00 | 0.00 | 99 | 1012.1 |
| 20260510092129 | 10 | 91 | 0.0 | 0.0 | 0.00 | 0.00 | 0.00 | 99 | 1012.5 |
| 20260510091537 | 10 | 91 | 0.0 | 0.0 | 0.00 | 0.00 | 0.00 | 99 | 1012.1 |
| 20260510090909 | 10 | 86 | 0.0 | 0.0 | 0.00 | 0.00 | 0.00 | 99 | 1012.1 |
| 20260510090341 | 10 | 90 | 0.0 | 0.0 | 0.00 | 0.00 | 0.00 | 99 | 1011.8 |
| 20260510085716 | 10 | 93 | 0.0 | 0.0 | 0.00 | 0.00 | 0.00 | 99 | 1012.1 |
| 20260510083948 | 10 | 86 | 0.0 | 0.0 | 0.00 | 0.00 | 0.00 | 99 | 1012.1 |
| 20260510083352 | 10 | 85 | 0.0 | 0.0 | 0.00 | 0.00 | 0.00 | 98 | 1012.1 |
| 20260510082744 | 10 | 80 | 0.0 | 0.0 | 0.00 | 0.00 | 0.00 | 98 | 1011.8 |
| 20260510082119 | 10 | 80 | 0.0 | 0.0 | 0.00 | 0.00 | 0.00 | 98 | 1012.1 |
| 20260510081549 | 11 | 78 | 0.0 | 0.0 | 0.00 | 0.00 | 0.00 | 97 | 1012.1 |
| 20260510080918 | 11 | 84 | 0.0 | 0.0 | 0.00 | 0.00 | 0.00 | 98 | 1012.1 |
| 20260510080327 | 11 | 82 | 0.0 | 0.0 | 0.00 | 0.00 | 0.00 | 97 | 1011.8 |
| 20260510075750 | 11 | 85 | 0.0 | 0.0 | 0.00 | 0.00 | 0.00 | 97 | 1011.8 |
| 20260510074542 | 11 | 85 | 0.0 | 0.0 | 0.00 | 0.00 | 0.00 | 97 | 1011.5 |
| 20260510073942 | 11 | 87 | 0.0 | 0.0 | 0.00 | 0.00 | 0.00 | 96 | 1011.8 |
| 20260510073347 | 11 | 84 | 0.0 | 0.0 | 0.00 | 0.00 | 0.00 | 96 | 1011.8 |
| 20260510072734 | 11 | 84 | 0.0 | 0.0 | 0.00 | 0.00 | 0.00 | 95 | 1011.8 |
| 20260510072126 | 11 | 85 | 0.0 | 0.0 | 0.00 | 0.00 | 0.00 | 95 | 1011.8 |
| 20260510071546 | 11 | 85 | 0.0 | 0.0 | 0.00 | 0.00 | 0.00 | 95 | 1011.8 |
| 20260510070925 | 11 | 79 | 0.0 | 0.0 | 0.00 | 0.00 | 0.00 | 93 | 1011.8 |
| 20260510070312 | 12 | 89 | 0.0 | 0.0 | 0.00 | 0.00 | 0.00 | 92 | 1011.5 |
| 20260510065734 | 12 | 81 | 0.0 | 0.0 | 0.00 | 0.00 | 0.00 | 91 | 1011.8 |
| 20260510065141 | 12 | 94 | 0.0 | 0.0 | 0.00 | 0.00 | 0.00 | 90 | 1011.5 |
| 20260510063923 | 12 | 86 | 0.0 | 0.0 | 0.00 | 0.00 | 0.00 | 89 | 1011.8 |
| 20260510063330 | 13 | 98 | 1.6 | 1.6 | 0.00 | 0.00 | 0.00 | 88 | 1011.8 |
| 20260510062709 | 13 | 105 | 1.6 | 1.6 | 0.00 | 0.00 | 0.00 | 86 | 1011.5 |
| 20260510062146 | 13 | 100 | 0.0 | 0.0 | 0.00 | 0.00 | 0.00 | 87 | 1011.8 |
| 20260510061534 | 13 | 94 | 0.0 | 0.0 | 0.00 | 0.00 | 0.00 | 87 | 1011.8 |
| 20260510060949 | 13 | 109 | 0.0 | 0.0 | 0.00 | 0.00 | 0.00 | 85 | 1011.8 |
| 20260510060341 | 13 | 114 | 1.6 | 1.6 | 0.00 | 0.00 | 0.00 | 85 | 1011.5 |
| 20260510055725 | 13 | 102 | 0.0 | 0.0 | 0.00 | 0.00 | 0.00 | 84 | 1011.8 |
| 20260510055118 | 14 | 112 | 1.6 | 1.6 | 0.00 | 0.00 | 0.00 | 84 | 1011.5 |
| 20260510054538 | 14 | 182 | 3.2 | 4.8 | 0.00 | 0.00 | 0.00 | 84 | 1011.8 |
| 20260510053314 | 14 | 128 | 1.6 | 1.6 | 0.00 | 0.00 | 0.00 | 84 | 1011.8 |
| 20260510052149 | 13 | 93 | 0.0 | 0.0 | 0.00 | 0.00 | 0.00 | 85 | 1011.8 |
| 20260510051548 | 14 | 93 | 0.0 | 0.0 | 0.00 | 0.00 | 0.00 | 84 | 1011.8 |
| 20260510050912 | 14 | 102 | 1.6 | 1.6 | 0.00 | 0.00 | 0.00 | 83 | 1011.8 |
| 20260510050332 | 14 | 99 | 0.0 | 1.6 | 0.00 | 0.00 | 0.00 | 83 | 1011.8 |
| 20260510045721 | 15 | 101 | 1.6 | 3.2 | 0.00 | 0.00 | 0.00 | 82 | 1011.8 |
| 20260510045110 | 15 | 119 | 3.2 | 4.8 | 0.00 | 0.00 | 0.00 | 81 | 1011.8 |
| 20260510043931 | 15 | 108 | 1.6 | 1.6 | 0.00 | 0.00 | 0.00 | 80 | 1011.8 |
| 20260510043338 | 15 | 156 | 0.0 | 0.0 | 0.00 | 0.00 | 0.00 | 80 | 1011.8 |
| 20260510042711 | 15 | 135 | 0.0 | 1.6 | 0.00 | 0.00 | 0.00 | 79 | 1011.8 |
| 20260510042145 | 15 | 93 | 1.6 | 1.6 | 0.00 | 0.00 | 0.00 | 79 | 1011.8 |
| 20260510041533 | 15 | 103 | 1.6 | 1.6 | 0.00 | 0.00 | 0.00 | 80 | 1011.8 |
| 20260510040924 | 15 | 86 | 0.0 | 0.0 | 0.00 | 0.00 | 0.00 | 79 | 1011.8 |
| 20260510040343 | 15 | 123 | 0.0 | 0.0 | 0.00 | 0.00 | 0.00 | 80 | 1011.8 |
| 20260510035747 | 15 | 113 | 0.0 | 0.0 | 0.00 | 0.00 | 0.18 | 80 | 1011.8 |
| 20260510035123 | 15 | 91 | 0.0 | 1.6 | 0.00 | 0.00 | 0.18 | 80 | 1011.8 |
| 20260510034541 | 15 | 106 | 0.0 | 0.0 | 0.00 | 0.00 | 0.18 | 80 | 1011.8 |
| 20260510033909 | 15 | 150 | 0.0 | 0.0 | 0.00 | 0.00 | 0.18 | 80 | 1011.8 |
| 20260510033316 | 15 | 101 | 0.0 | 1.6 | 0.00 | 0.00 | 0.18 | 80 | 1011.5 |
| 20260510032752 | 15 | 159 | 1.6 | 1.6 | 0.00 | 0.00 | 0.18 | 80 | 1011.8 |
| 20260510032147 | 15 | 100 | 1.6 | 1.6 | 0.00 | 0.00 | 0.18 | 80 | 1011.8 |
| 20260510031524 | 15 | 134 | 1.6 | 3.2 | 0.00 | 0.00 | 0.18 | 79 | 1011.8 |
| 20260510030919 | 15 | 157 | 3.2 | 3.2 | 0.00 | 0.00 | 0.18 | 79 | 1011.5 |
| 20260510030328 | 15 | 91 | 0.0 | 0.0 | 0.00 | 0.00 | 0.18 | 79 | 1011.8 |
| 20260510025732 | 15 | 98 | 1.6 | 1.6 | 0.00 | 0.00 | 0.18 | 79 | 1011.5 |
| 20260510025123 | 15 | 105 | 1.6 | 1.6 | 0.00 | 0.00 | 0.18 | 79 | 1011.5 |
| 20260510023940 | 16 | 108 | 1.6 | 1.6 | 0.00 | 0.00 | 0.18 | 77 | 1011.5 |
| 20260510022739 | 16 | 115 | 0.0 | 1.6 | 0.00 | 0.00 | 0.18 | 77 | 1011.5 |
| 20260510021510 | 16 | 86 | 0.0 | 1.6 | 0.00 | 0.00 | 0.18 | 75 | 1011.1 |
| 20260510020952 | 16 | 95 | 1.6 | 1.6 | 0.00 | 0.00 | 0.18 | 75 | 1011.1 |
| 20260510015740 | 16 | 86 | 0.0 | 0.0 | 0.00 | 0.00 | 0.18 | 75 | 1011.1 |
| 20260510015143 | 16 | 125 | 3.2 | 3.2 | 0.00 | 0.00 | 0.18 | 76 | 1010.8 |
| 20260510014511 | 16 | 247 | 1.6 | 1.6 | 0.00 | 0.00 | 0.18 | 75 | 1010.8 |
| 20260510013946 | 16 | 89 | 0.0 | 0.0 | 0.00 | 0.00 | 0.18 | 75 | 1010.4 |
| 20260510012725 | 16 | 100 | 0.0 | 1.6 | 0.00 | 0.00 | 0.18 | 74 | 1010.4 |
| 20260510012131 | 16 | 111 | 1.6 | 3.2 | 0.00 | 0.00 | 0.18 | 73 | 1010.4 |
| 20260510011556 | 16 | 102 | 0.0 | 0.0 | 0.00 | 0.00 | 0.18 | 72 | 1010.4 |
| 20260510010951 | 17 | 89 | 0.0 | 0.0 | 0.00 | 0.00 | 0.18 | 72 | 1010.1 |
| 20260510010348 | 17 | 84 | 0.0 | 0.0 | 0.00 | 0.00 | 0.18 | 70 | 1010.1 |
| 20260510005143 | 17 | 92 | 0.0 | 0.0 | 0.00 | 0.00 | 0.18 | 70 | 1010.1 |
| 20260510004550 | 17 | 88 | 0.0 | 0.0 | 0.00 | 0.00 | 0.18 | 69 | 1009.8 |
| 20260510003307 | 18 | 94 | 0.0 | 0.0 | 0.00 | 0.00 | 0.18 | 67 | 1009.8 |
| 20260510002716 | 18 | 132 | 3.2 | 4.8 | 0.00 | 0.00 | 0.18 | 66 | 1009.8 |
| 20260510001511 | 18 | 96 | 1.6 | 1.6 | 0.00 | 0.00 | 0.18 | 65 | 1009.8 |
| 20260510000943 | 18 | 94 | 0.0 | 1.6 | 0.00 | 0.00 | 0.18 | 64 | 1009.4 |
| 20260510000349 | 18 | 82 | 0.0 | 0.0 | 0.00 | 0.00 | 0.18 | 63 | 1009.4 |
| 20260509235709 | 19 | 105 | 1.6 | 1.6 | 0.00 | 0.00 | 0.18 | 62 | 1009.4 |
| 20260509235126 | 19 | 212 | 4.8 | 4.8 | 0.00 | 0.00 | 0.18 | 61 | 1009.4 |
| 20260509234543 | 20 | 93 | 1.6 | 1.6 | 0.00 | 0.00 | 0.18 | 60 | 1009.4 |
| 20260509233949 | 20 | 100 | 0.0 | 0.0 | 0.00 | 0.00 | 0.18 | 61 | 1009.4 |
| 20260509233339 | 20 | 212 | 3.2 | 4.8 | 0.00 | 0.00 | 0.18 | 59 | 1009.1 |
| 20260509232129 | 20 | 133 | 1.6 | 1.6 | 0.00 | 0.00 | 0.18 | 60 | 1009.1 |
| 20260509231509 | 21 | 312 | 6.4 | 9.7 | 0.00 | 0.00 | 0.18 | 57 | 1009.1 |
| 20260509230951 | 21 | 189 | 3.2 | 3.2 | 0.00 | 0.00 | 0.18 | 57 | 1009.1 |
| 20260509230332 | 21 | 164 | 3.2 | 4.8 | 0.00 | 0.00 | 0.18 | 55 | 1009.1 |
| 20260509225146 | 21 | 94 | 1.6 | 3.2 | 0.00 | 0.00 | 0.18 | 56 | 1009.1 |
| 20260509224535 | 21 | 174 | 3.2 | 6.4 | 0.00 | 0.00 | 0.18 | 55 | 1009.1 |
| 20260509223928 | 21 | 241 | 6.4 | 6.4 | 0.00 | 0.00 | 0.18 | 52 | 1009.1 |
| 20260509223343 | 21 | 247 | 1.6 | 1.6 | 0.00 | 0.00 | 0.18 | 54 | 1009.4 |
| 20260509222130 | 21 | 232 | 9.7 | 11.3 | 0.00 | 0.00 | 0.18 | 51 | 1009.4 |
| 20260509220917 | 22 | 140 | 1.6 | 3.2 | 0.00 | 0.00 | 0.18 | 53 | 1009.4 |
| 20260509220325 | 22 | 128 | 4.8 | 6.4 | 0.00 | 0.00 | 0.18 | 52 | 1009.4 |
| 20260509215723 | 21 | 83 | 0.0 | 0.0 | 0.00 | 0.00 | 0.18 | 56 | 1009.4 |
| 20260509215134 | 21 | 155 | 1.6 | 1.6 | 0.00 | 0.00 | 0.18 | 57 | 1009.4 |
| 20260509214520 | 22 | 142 | 3.2 | 3.2 | 0.00 | 0.00 | 0.18 | 53 | 1009.4 |
| 20260509213334 | 21 | 303 | 3.2 | 3.2 | 0.00 | 0.00 | 0.18 | 53 | 1009.4 |
| 20260509212738 | 20 | 235 | 6.4 | 9.7 | 0.00 | 0.00 | 0.18 | 55 | 1009.4 |
| 20260509212145 | 21 | 218 | 8.0 | 11.3 | 0.00 | 0.00 | 0.18 | 54 | 1009.8 |
| 20260509211542 | 21 | 158 | 0.0 | 0.0 | 0.00 | 0.00 | 0.18 | 53 | 1009.4 |
| 20260509210931 | 21 | 94 | 0.0 | 0.0 | 0.00 | 0.00 | 0.18 | 56 | 1009.8 |
| 20260509210318 | 20 | 158 | 8.0 | 14.5 | 0.00 | 0.00 | 0.18 | 57 | 1009.8 |
| 20260509205747 | 21 | 72 | 1.6 | 3.2 | 0.00 | 0.00 | 0.18 | 57 | 1009.4 |
| 20260509205134 | 21 | 262 | 4.8 | 4.8 | 0.00 | 0.00 | 0.18 | 56 | 1009.8 |
| 20260509204537 | 21 | 230 | 9.7 | 12.9 | 0.00 | 0.00 | 0.18 | 55 | 1009.8 |
| 20260509203950 | 21 | 161 | 1.6 | 3.2 | 0.00 | 0.00 | 0.18 | 53 | 1009.8 |